Northport NY Webcam more information Northport NY Webcam


Visit our other weather sites:

Template documentation
and downloads

And another site



Nearby METAR Reports


Warning: A non-numeric value encountered in /home/portan24/public_html/weather28/metar/wsMetarTxt.php on line 608

Warning: A non-numeric value encountered in /home/portan24/public_html/weather28/metar/wsMetarTxt.php on line 608

Warning: A non-numeric value encountered in /home/portan24/public_html/weather28/metar/wsMetarTxt.php on line 608

Warning: A non-numeric value encountered in /home/portan24/public_html/weather28/metar/wsMetarTxt.php on line 608

Warning: A non-numeric value encountered in /home/portan24/public_html/weather28/metar/wsMetarTxt.php on line 608

Warning: A non-numeric value encountered in /home/portan24/public_html/weather28/metar/wsMetarTxt.php on line 608
   
EBBR - Brussels International Airport, Belgium
Distance from station: W 9 mi
Updated: Nov 18 2017 3:20 am
Mostly Cloudy  
Mostly Cloudy  
   Wind: WSW 11.5 mph
Wind: WSW 11.5 mph
Temperature: 39.2°F
Wind Chill: 32°F
Dew Point: 33.8°F
Humidity: 81%
Barometer: 30.21 inHg
Clouds: Mostly Cloudy
Visibility: More than 6 mi
Cloud details: Mostly Cloudy 1067 m
EBBR 180820Z 24010KT 9999 BKN035 04/01 Q1023 NOSIG
EBBE - Beauvechain (Bevekom), Belgium
Distance from station: SSE 10 mi
Updated: Nov 18 2017 3:25 am
Overcast  
Overcast  
   Wind: SW 11.5 mph
Wind: SW 11.5 mph
Temperature: 39.2°F
Wind Chill: 32°F
Dew Point: 32°F
Humidity: 75%
Barometer: 30.21 inHg
Clouds: Overcast
Visibility: More than 6 mi
Cloud details: Overcast 1067 m
EBBE 180825Z AUTO 22010KT 9999 OVC035/// 04/00 Q1023 BLU
EBDT - Schaffen, Belgium
Distance from station: ENE 18 mi
Updated: Nov 18 2017 3:25 am
Mostly Cloudy  
Mostly Cloudy  
   Wind: SW 5.8 mph
Wind: SW 5.8 mph
Temperature: 39.2°F
Wind Chill: 35.6°F
Dew Point: 33.8°F
Humidity: 81%
Barometer: 30.18 inHg
Clouds: Mostly Cloudy
Visibility: More than 6 mi
Cloud details: Partly Cloudy 1006 m,
Mostly Cloudy 1158 m
EBDT 180825Z AUTO 22005KT 9999 SCT033/// BKN038/// 04/01 Q1022 BLU
EBAW - Antwerp/Deurne, Belgium
Distance from station: NNW 23 mi
Updated: Nov 18 2017 3:20 am
Mostly Cloudy  
Mostly Cloudy  
   Wind: SW 9.2 mph
Wind: SW 9.2 mph
Temperature: 41°F
Wind Chill: 35.6°F
Dew Point: 33.8°F
Humidity: 76%
Barometer: 30.18 inHg
Clouds: Mostly Cloudy
Visibility: More than 6 mi
Cloud details: Mostly Cloudy 1006 m
EBAW 180820Z 23008KT 9999 BKN033 05/01 Q1022 NOSIG
EBCI - Charleroi/Gosselies, Belgium
Distance from station: SSW 32 mi
Updated: Nov 18 2017 3:20 am
Mostly Cloudy  
Mostly Cloudy  
   Wind: SW 8.1 mph
Wind: SW 8.1 mph
Temperature: 37.4°F
Wind Chill: 30.2°F
Dew Point: 33.8°F
Humidity: 87%
Barometer: 30.24 inHg
Clouds: Mostly Cloudy
Visibility: More than 6 mi
Cloud details: Mostly Cloudy 975 m
EBCI 180820Z 23007KT 9999 BKN032 03/01 Q1024 NOSIG
EBLG - Bierset/Liege, Belgium
Distance from station: ESE 38 mi
Updated: Nov 18 2017 3:20 am
Mostly Cloudy  
Mostly Cloudy  
   Wind: SW 11.5 mph
Wind: SW 11.5 mph
Temperature: 35.6°F
Wind Chill: 28.4°F
Dew Point: 26.6°F
Humidity: 70%
Barometer: 30.21 inHg
Clouds: Mostly Cloudy
Visibility: 5 mi
Cloud details: Mostly Cloudy 1006 m
EBLG 180820Z 23010KT 8000 BKN033 02/M03 Q1023 NOSIG

Script developed by  Saratoga-weather.org Adapted for the template by  Weerstation Leuven

You find our weather info also at:

Weather Underground

AWEKAS

Citizen Weather Observer Program (CWOP)

Equipment we use:

Weather-station
Davis VP2

Davis VP2